createdAt,value
2022-12-23T00:01:29.066Z,35.22
2022-12-23T00:03:58.757Z,34.70
2022-12-23T00:06:25.215Z,37.53
2022-12-23T00:08:58.728Z,32.42
2022-12-23T00:11:26.050Z,42.17
2022-12-23T00:14:14.780Z,37.22
2022-12-23T00:16:46.513Z,35.88
2022-12-23T00:19:12.661Z,36.88
2022-12-23T00:21:38.793Z,33.50
2022-12-23T00:24:05.163Z,35.33
2022-12-23T00:26:31.290Z,34.13
2022-12-23T00:28:58.774Z,38.40
2022-12-23T00:31:25.506Z,34.53
2022-12-23T00:33:53.504Z,35.78
2022-12-23T00:36:25.670Z,34.78
2022-12-23T00:39:10.758Z,34.13
2022-12-23T00:41:55.766Z,35.35
2022-12-23T00:44:21.889Z,32.73
2022-12-23T00:46:48.365Z,32.65
2022-12-23T00:49:34.695Z,34.25
2022-12-23T00:52:01.782Z,31.98
2022-12-23T00:54:28.483Z,29.17
2022-12-23T00:56:54.605Z,32.22
2022-12-23T00:59:20.733Z,31.15
2022-12-23T01:02:05.677Z,32.05
2022-12-23T01:04:50.386Z,32.63
2022-12-23T01:07:16.532Z,30.05
2022-12-23T01:09:42.665Z,35.67
2022-12-23T01:12:09.121Z,31.20
2022-12-23T01:14:35.773Z,35.92
2022-12-23T01:17:02.186Z,37.40
2022-12-23T01:19:29.050Z,38.75
2022-12-23T01:21:55.323Z,35.08
2022-12-23T01:24:21.580Z,34.90
2022-12-23T01:26:47.693Z,38.00
2022-12-23T01:29:13.842Z,31.70
2022-12-23T01:31:40.035Z,33.25
2022-12-23T01:34:06.163Z,36.22
2022-12-23T01:36:32.321Z,37.05
2022-12-23T01:38:58.454Z,37.80
2022-12-23T01:41:46.217Z,32.45
2022-12-23T01:44:46.258Z,32.90
2022-12-23T01:47:18.809Z,30.35
2022-12-23T01:49:46.894Z,33.17
2022-12-23T01:52:14.283Z,36.00
2022-12-23T01:54:41.687Z,31.67
2022-12-23T01:57:07.823Z,29.48
2022-12-23T01:59:52.498Z,29.23
2022-12-23T02:02:37.493Z,28.88
2022-12-23T02:05:03.796Z,29.58
2022-12-23T02:07:49.465Z,31.35
2022-12-23T02:10:15.629Z,29.70
2022-12-23T02:12:52.412Z,29.33
2022-12-23T02:15:55.447Z,28.00
2022-12-23T02:18:38.075Z,29.60
2022-12-23T02:21:23.535Z,24.27
2022-12-23T02:24:22.412Z,27.98
2022-12-23T02:26:54.266Z,24.95
2022-12-23T02:30:03.075Z,26.98
2022-12-23T02:32:47.539Z,25.42
2022-12-23T02:35:23.715Z,21.92
2022-12-23T02:37:59.972Z,23.65
2022-12-23T02:40:36.553Z,24.52
2022-12-23T02:43:13.158Z,22.23
2022-12-23T02:45:45.816Z,23.58
2022-12-23T02:48:24.702Z,25.20
2022-12-23T02:50:53.576Z,19.80
2022-12-23T02:53:27.759Z,23.70
2022-12-23T02:55:57.017Z,25.00
2022-12-23T02:58:27.880Z,24.92
2022-12-23T03:00:55.500Z,24.38
2022-12-23T03:03:22.462Z,24.65
2022-12-23T03:05:51.033Z,22.60
2022-12-23T03:08:24.046Z,22.80
2022-12-23T03:11:01.907Z,22.58
2022-12-23T03:13:32.997Z,23.83
2022-12-23T03:16:24.071Z,21.02
2022-12-23T03:19:27.691Z,22.15
2022-12-23T03:22:10.788Z,21.20
2022-12-23T03:25:04.463Z,24.80
2022-12-23T03:27:33.265Z,24.55
2022-12-23T03:30:06.246Z,24.17
2022-12-23T03:32:53.545Z,24.40
2022-12-23T03:35:23.900Z,23.75
2022-12-23T03:37:53.582Z,22.98
2022-12-23T03:40:24.851Z,23.98
2022-12-23T03:42:58.628Z,22.45
2022-12-23T03:45:39.275Z,28.50
2022-12-23T03:48:13.657Z,27.30
2022-12-23T03:50:42.903Z,26.20
2022-12-23T03:53:16.314Z,25.27
2022-12-23T03:55:48.428Z,24.88
2022-12-23T03:58:27.101Z,26.77
2022-12-23T04:01:02.324Z,26.98
2022-12-23T04:03:38.806Z,25.85
2022-12-23T04:06:09.939Z,24.10
2022-12-23T04:08:38.195Z,30.73
2022-12-23T04:11:05.379Z,31.02
2022-12-23T04:13:31.909Z,28.65
2022-12-23T04:15:59.445Z,27.15
2022-12-23T04:18:25.659Z,26.63
2022-12-23T04:20:51.766Z,32.22
2022-12-23T04:23:17.893Z,28.25
2022-12-23T04:25:44.002Z,32.05
2022-12-23T04:28:10.148Z,30.02
2022-12-23T04:30:36.267Z,29.73
2022-12-23T04:33:03.242Z,33.55
2022-12-23T04:35:30.604Z,29.13
2022-12-23T04:37:56.731Z,31.50
2022-12-23T04:40:22.844Z,32.22
2022-12-23T04:42:48.972Z,28.30
2022-12-23T04:45:15.206Z,26.77
2022-12-23T04:47:41.414Z,31.60
2022-12-23T04:50:08.141Z,34.45
2022-12-23T04:52:34.276Z,29.63
2022-12-23T04:55:00.381Z,31.77
2022-12-23T04:57:26.526Z,33.92
2022-12-23T04:59:52.630Z,30.33
2022-12-23T07:57:37.791Z,23.20
2022-12-23T08:00:05.946Z,20.63
2022-12-23T08:02:38.582Z,24.08
2022-12-23T08:05:06.092Z,24.65
2022-12-23T08:07:32.264Z,20.58
2022-12-23T08:09:58.454Z,19.13
2022-12-23T08:12:25.391Z,18.67
2022-12-23T08:14:52.727Z,18.77
2022-12-23T08:17:21.516Z,20.77
2022-12-23T08:19:48.480Z,21.95
2022-12-23T08:22:14.678Z,17.60
2022-12-23T08:24:40.790Z,17.10
2022-12-23T08:27:07.032Z,24.60
2022-12-23T08:29:36.358Z,23.15
2022-12-23T08:32:03.177Z,20.70
2022-12-23T08:34:29.318Z,27.70
2022-12-23T08:36:55.443Z,37.65
2022-12-23T08:39:21.561Z,24.05
2022-12-23T08:41:48.299Z,28.98
2022-12-23T08:44:15.439Z,44.55
2022-12-23T08:46:42.177Z,30.83
2022-12-23T08:49:09.025Z,36.38
2022-12-23T08:51:36.222Z,42.85
2022-12-23T08:54:02.996Z,34.80
2022-12-23T08:56:32.381Z,47.35
2022-12-23T08:58:59.508Z,31.67
2022-12-23T09:01:29.580Z,59.47
2022-12-23T09:03:56.004Z,42.88
2022-12-23T09:06:29.576Z,55.53
2022-12-23T09:08:56.516Z,37.28
2022-12-23T09:11:25.743Z,39.47
2022-12-23T09:13:51.967Z,40.13
2022-12-23T09:16:18.656Z,37.30
2022-12-23T09:18:44.847Z,50.20
2022-12-23T09:21:15.011Z,31.58
2022-12-23T09:23:41.380Z,42.55
2022-12-23T09:26:08.912Z,38.60
2022-12-23T09:28:35.187Z,41.45
2022-12-23T09:31:12.657Z,32.03
2022-12-23T09:33:39.261Z,27.70
2022-12-23T09:36:06.500Z,38.13
2022-12-23T09:38:33.419Z,25.42
2022-12-23T09:41:30.491Z,31.70
2022-12-23T09:44:17.514Z,23.98
2022-12-23T09:46:53.064Z,20.55
2022-12-23T09:49:22.630Z,19.45
2022-12-23T09:51:50.863Z,14.95
2022-12-23T09:54:23.638Z,16.80
2022-12-23T09:57:16.330Z,14.80
2022-12-23T10:00:10.987Z,21.50
2022-12-23T10:02:45.336Z,16.65
2022-12-23T10:05:43.893Z,17.48
2022-12-23T10:08:17.558Z,11.35
2022-12-23T10:10:48.438Z,11.93
2022-12-23T10:13:26.693Z,12.93
2022-12-23T10:15:54.582Z,15.05
2022-12-23T10:18:25.797Z,13.20
2022-12-23T10:21:29.131Z,15.18
2022-12-23T10:23:55.676Z,13.98
2022-12-23T10:26:31.239Z,11.13
2022-12-23T10:29:15.440Z,12.90
2022-12-23T10:32:06.992Z,13.32
2022-12-23T10:34:45.785Z,15.55
2022-12-23T10:37:20.410Z,14.32
2022-12-23T10:40:05.392Z,15.10
2022-12-23T10:42:40.350Z,12.57
2022-12-23T10:45:24.741Z,11.82
2022-12-23T10:48:17.904Z,15.45
2022-12-23T10:51:03.498Z,19.15
2022-12-23T10:53:39.227Z,14.38
2022-12-23T10:56:07.370Z,17.45
2022-12-23T10:58:38.364Z,16.83
2022-12-23T11:01:15.032Z,19.13
2022-12-23T11:04:10.282Z,18.40
2022-12-23T11:06:46.352Z,23.70
2022-12-23T11:09:22.637Z,19.92
2022-12-23T11:12:00.899Z,20.73
2022-12-23T11:14:41.719Z,21.00
2022-12-23T11:17:24.553Z,22.67
2022-12-23T11:20:15.341Z,19.60
2022-12-23T11:22:49.345Z,22.45
2022-12-23T11:25:29.754Z,19.10
2022-12-23T11:28:07.627Z,17.10
2022-12-23T11:30:39.333Z,19.10
2022-12-23T11:33:06.233Z,17.92
2022-12-23T11:35:35.729Z,17.58
2022-12-23T11:38:03.877Z,16.25
2022-12-23T11:40:37.568Z,16.60
2022-12-23T11:43:11.559Z,20.13
2022-12-23T11:45:38.721Z,17.33
2022-12-23T11:48:06.143Z,17.65
2022-12-23T11:50:37.996Z,17.75
2022-12-23T11:53:13.224Z,21.88
2022-12-23T11:55:48.483Z,17.30
2022-12-23T11:58:21.177Z,15.70
2022-12-23T12:00:59.100Z,14.80
2022-12-23T12:03:30.538Z,15.60
2022-12-23T12:06:03.560Z,15.75
2022-12-23T12:08:37.292Z,17.08
2022-12-23T12:11:14.879Z,16.75
2022-12-23T12:13:43.570Z,18.10
2022-12-23T12:16:23.066Z,17.25
2022-12-23T12:18:55.531Z,17.67
2022-12-23T12:21:28.131Z,18.40
2022-12-23T12:24:20.556Z,18.95
2022-12-23T12:26:52.364Z,19.10
2022-12-23T12:29:42.088Z,33.58
2022-12-23T12:32:46.465Z,24.52
2022-12-23T12:35:21.722Z,20.58
2022-12-23T12:38:09.269Z,21.10
2022-12-23T12:40:51.633Z,21.55
2022-12-23T12:43:27.473Z,22.15
2022-12-23T12:46:10.219Z,18.80
2022-12-23T12:49:15.199Z,20.52
2022-12-23T12:51:57.959Z,22.48
2022-12-23T12:54:45.565Z,20.55
2022-12-23T12:57:17.863Z,20.75
2022-12-23T12:59:45.195Z,20.05
2022-12-23T13:02:52.300Z,18.40
2022-12-23T13:05:30.410Z,21.40
2022-12-23T13:08:26.400Z,25.13
2022-12-23T13:11:09.658Z,18.60
2022-12-23T13:13:47.892Z,20.65
2022-12-23T13:16:36.496Z,20.23
2022-12-23T13:19:21.406Z,18.38
2022-12-23T13:21:52.746Z,18.10
2022-12-23T13:24:50.745Z,20.73
2022-12-23T13:27:29.003Z,19.05
2022-12-23T13:30:05.828Z,15.43
2022-12-23T13:32:49.814Z,17.48
2022-12-23T13:35:24.853Z,18.17
2022-12-23T13:38:26.338Z,18.25
2022-12-23T13:41:04.622Z,20.60
2022-12-23T13:43:42.668Z,18.88
2022-12-23T13:46:26.874Z,17.77
2022-12-23T13:49:00.222Z,20.00
2022-12-23T13:51:44.609Z,18.38
2022-12-23T13:54:27.203Z,18.85
2022-12-23T13:57:22.848Z,16.35
2022-12-23T14:00:06.022Z,18.13
2022-12-23T14:02:42.240Z,17.33
2022-12-23T14:05:35.290Z,16.17
2022-12-23T14:08:22.719Z,16.98
2022-12-23T14:11:14.795Z,18.38
2022-12-23T14:13:44.229Z,16.15
2022-12-23T14:16:21.691Z,18.95
2022-12-23T14:19:06.525Z,20.65
2022-12-23T14:21:51.485Z,17.65
2022-12-23T14:24:30.801Z,18.67
2022-12-23T14:27:19.763Z,18.77
2022-12-23T14:30:16.547Z,20.63
2022-12-23T14:33:03.294Z,20.58
2022-12-23T14:35:38.329Z,18.65
2022-12-23T14:38:15.438Z,17.83
2022-12-23T14:40:41.565Z,20.33
2022-12-23T14:43:23.232Z,19.08
2022-12-23T14:45:54.503Z,19.60
2022-12-23T14:48:35.913Z,18.58
2022-12-23T14:51:09.265Z,20.77
2022-12-23T14:53:54.010Z,16.33
2022-12-23T14:56:20.095Z,17.50
2022-12-23T14:58:46.166Z,20.23
2022-12-23T15:01:33.641Z,18.80
2022-12-23T15:04:08.146Z,20.48
2022-12-23T15:06:51.148Z,18.40
2022-12-23T15:09:49.805Z,18.95
2022-12-23T15:12:22.281Z,17.58
2022-12-23T15:14:56.909Z,19.27
2022-12-23T15:17:32.367Z,17.05
2022-12-23T15:22:41.298Z,18.35
2022-12-23T15:25:29.221Z,19.50
2022-12-23T15:28:01.431Z,18.92
2022-12-23T15:30:34.055Z,20.45
2022-12-23T15:33:16.094Z,22.17
2022-12-23T15:35:52.717Z,20.90
2022-12-23T15:38:21.116Z,19.95
2022-12-23T15:41:14.605Z,22.30
2022-12-23T15:43:42.228Z,21.75
2022-12-23T15:46:28.727Z,26.23
2022-12-23T15:48:56.742Z,23.30
2022-12-23T15:54:35.092Z,24.17
2022-12-23T15:57:03.313Z,21.15
2022-12-23T15:59:34.244Z,21.48
2022-12-23T16:02:40.540Z,20.73
2022-12-23T16:05:00.501Z,21.88
2022-12-23T16:07:35.388Z,20.15
2022-12-23T16:10:20.994Z,21.05
2022-12-23T16:12:52.034Z,19.80
2022-12-23T16:15:29.915Z,21.65
2022-12-23T16:18:20.643Z,20.70
2022-12-23T16:21:02.404Z,20.83
2022-12-23T16:23:30.799Z,20.05
2022-12-23T16:25:59.904Z,22.23
2022-12-23T16:28:39.018Z,21.80
2022-12-23T16:31:07.744Z,22.17
2022-12-23T16:33:51.436Z,21.30
2022-12-23T16:36:17.507Z,20.52
2022-12-23T16:38:44.054Z,21.77
2022-12-23T16:41:10.449Z,23.23
2022-12-23T16:43:36.580Z,22.52
2022-12-23T16:46:03.332Z,23.65
2022-12-23T16:48:36.489Z,21.40
2022-12-23T16:51:08.652Z,21.27
2022-12-23T16:53:34.802Z,18.88
2022-12-23T16:56:01.520Z,20.67
2022-12-23T16:58:27.814Z,21.85
2022-12-23T17:00:54.115Z,26.00
2022-12-23T17:03:20.703Z,32.20
2022-12-23T17:05:47.744Z,27.48
2022-12-23T17:08:14.123Z,25.88
2022-12-23T17:10:42.540Z,31.80
2022-12-23T17:13:11.933Z,25.02
2022-12-23T17:15:38.146Z,29.95
2022-12-23T17:18:04.377Z,30.00
2022-12-23T17:20:30.782Z,33.00
2022-12-23T17:22:59.906Z,55.95
2022-12-23T17:25:26.714Z,42.38
2022-12-23T17:27:53.758Z,39.05
2022-12-23T17:30:23.079Z,54.65
2022-12-23T17:32:56.484Z,41.88
2022-12-23T17:35:23.371Z,29.08
2022-12-23T17:37:49.730Z,26.98
2022-12-23T17:40:16.560Z,42.80
2022-12-23T17:42:43.449Z,47.33
2022-12-23T17:45:27.830Z,76.80
2022-12-23T17:47:53.982Z,70.15
2022-12-23T17:50:20.637Z,35.40
2022-12-23T17:52:46.994Z,28.23
2022-12-23T17:55:23.039Z,37.72
2022-12-23T17:57:49.163Z,32.30
2022-12-23T18:00:25.135Z,32.08
2022-12-23T18:02:55.836Z,27.25
2022-12-23T18:05:28.418Z,34.33
2022-12-23T18:07:57.214Z,32.05
2022-12-23T18:10:29.227Z,29.85
2022-12-23T18:13:01.681Z,27.20
2022-12-23T18:15:35.634Z,22.90
2022-12-23T18:18:02.659Z,22.75
2022-12-23T18:20:28.862Z,21.83
2022-12-23T18:22:55.308Z,27.60
2022-12-23T18:25:24.614Z,28.42
2022-12-23T18:27:52.024Z,38.45
2022-12-23T18:30:18.308Z,28.77
2022-12-23T18:32:45.149Z,31.90
2022-12-23T18:35:51.738Z,29.58
2022-12-23T18:38:18.565Z,25.25
2022-12-23T18:40:44.804Z,25.20
2022-12-23T18:43:19.701Z,25.25
2022-12-23T18:45:50.806Z,27.27
2022-12-23T18:48:18.885Z,26.25
2022-12-23T18:50:46.763Z,27.83
2022-12-23T18:53:23.484Z,28.52
2022-12-23T18:55:51.011Z,25.02
2022-12-23T18:58:18.089Z,23.85
2022-12-23T19:00:44.939Z,27.15
2022-12-23T19:03:28.913Z,29.63
2022-12-23T19:05:56.861Z,24.88
2022-12-23T19:08:27.238Z,27.38
2022-12-23T19:10:54.552Z,25.80
2022-12-23T19:13:20.681Z,25.63
2022-12-23T19:15:46.854Z,28.10
2022-12-23T19:18:15.372Z,25.13
2022-12-23T19:20:43.007Z,32.00
2022-12-23T19:23:09.883Z,31.63
2022-12-23T19:25:35.997Z,31.67
2022-12-23T19:28:02.121Z,27.42
2022-12-23T19:30:29.629Z,32.25
2022-12-23T19:32:55.782Z,25.42
2022-12-23T19:35:21.985Z,28.35
2022-12-23T19:37:48.174Z,25.08
2022-12-23T19:40:14.283Z,26.98
2022-12-23T19:42:40.740Z,25.85
2022-12-23T19:45:08.608Z,24.02
2022-12-23T19:47:35.139Z,27.52
2022-12-23T19:50:01.261Z,23.42
2022-12-23T19:52:27.527Z,23.38
2022-12-23T19:54:53.630Z,24.40
2022-12-23T19:57:20.149Z,25.10
2022-12-23T19:59:46.366Z,25.52
2022-12-23T20:02:16.736Z,25.50
2022-12-23T20:04:43.427Z,22.10
2022-12-23T20:07:09.787Z,22.88
2022-12-23T20:09:36.549Z,23.33
2022-12-23T20:12:02.839Z,26.63
2022-12-23T20:14:32.334Z,25.38
2022-12-23T20:17:00.360Z,25.48
2022-12-23T20:19:26.483Z,29.38
2022-12-23T20:21:52.644Z,29.85
2022-12-23T20:24:18.908Z,27.23
2022-12-23T20:26:45.080Z,26.27
2022-12-23T20:29:11.241Z,29.55
2022-12-23T20:31:39.105Z,25.67
2022-12-23T20:34:09.283Z,24.63
2022-12-23T20:36:36.606Z,28.58
2022-12-23T20:39:04.094Z,28.27
2022-12-23T20:41:31.874Z,25.50
2022-12-23T20:46:44.940Z,24.05
2022-12-23T20:49:11.142Z,24.38
2022-12-23T20:51:37.253Z,22.30
2022-12-23T20:54:03.386Z,23.20
2022-12-23T20:56:30.442Z,22.42
2022-12-23T20:59:02.614Z,23.63
2022-12-23T21:01:35.821Z,20.77
2022-12-23T21:04:04.848Z,25.40
2022-12-23T21:06:31.615Z,22.27
2022-12-23T21:08:59.947Z,22.80
2022-12-23T21:11:30.861Z,19.17
2022-12-23T21:14:01.211Z,21.20
2022-12-23T21:16:32.468Z,21.33
2022-12-23T21:18:59.551Z,17.88
2022-12-23T21:21:27.270Z,19.98
2022-12-23T21:23:55.747Z,17.48
2022-12-23T21:26:24.292Z,18.00
2022-12-23T21:28:52.539Z,20.05
2022-12-23T21:31:21.243Z,19.23
2022-12-23T21:33:49.077Z,20.17
2022-12-23T21:36:20.471Z,19.92
2022-12-23T21:38:48.170Z,17.40
2022-12-23T21:41:17.839Z,19.83
2022-12-23T21:43:44.369Z,19.27
2022-12-23T21:46:13.733Z,16.58
2022-12-23T21:48:40.607Z,19.83
2022-12-23T21:51:18.901Z,20.42
2022-12-23T21:53:46.700Z,21.55
2022-12-23T21:56:15.225Z,23.63
2022-12-23T21:58:42.333Z,21.63
2022-12-23T22:01:20.463Z,20.27
2022-12-23T22:03:48.703Z,23.60
2022-12-23T22:06:17.896Z,20.63
2022-12-23T22:08:44.414Z,23.35
2022-12-23T22:11:13.388Z,25.63
2022-12-23T22:13:40.489Z,26.33
2022-12-23T22:16:10.344Z,23.23
2022-12-23T22:18:37.505Z,24.67
2022-12-23T22:21:05.474Z,31.10
2022-12-23T22:23:31.625Z,29.85
2022-12-23T22:25:57.824Z,27.10
2022-12-23T22:28:24.012Z,26.38
2022-12-23T22:30:50.168Z,27.30
2022-12-23T22:33:16.451Z,27.10
2022-12-23T22:35:43.008Z,26.15
2022-12-23T22:38:09.280Z,25.02
2022-12-23T22:40:35.752Z,27.02
2022-12-23T22:43:01.884Z,25.55
2022-12-23T22:45:28.033Z,23.65
2022-12-23T22:47:54.194Z,22.33
2022-12-23T22:50:20.329Z,23.80
2022-12-23T22:52:46.456Z,20.23
2022-12-23T22:55:12.573Z,20.75
2022-12-23T22:57:38.715Z,20.08
2022-12-23T23:00:11.820Z,20.85
2022-12-23T23:02:38.796Z,22.27
2022-12-23T23:05:10.793Z,24.08
2022-12-23T23:07:38.718Z,30.90
2022-12-23T23:10:05.839Z,25.70
2022-12-23T23:12:31.955Z,27.30
2022-12-23T23:14:58.076Z,27.30
2022-12-23T23:17:26.173Z,28.60
2022-12-23T23:19:53.080Z,23.65
2022-12-23T23:22:21.159Z,22.10
2022-12-23T23:24:47.338Z,27.88
2022-12-23T23:27:14.148Z,28.00
2022-12-23T23:29:40.619Z,27.92
2022-12-23T23:32:07.539Z,25.10
2022-12-23T23:34:34.308Z,28.65
2022-12-23T23:37:01.021Z,27.10
2022-12-23T23:39:27.149Z,26.38
2022-12-23T23:41:53.279Z,23.90
2022-12-23T23:44:19.845Z,29.50
2022-12-23T23:46:47.169Z,25.20
2022-12-23T23:49:14.176Z,29.92
2022-12-23T23:51:41.840Z,28.52
2022-12-23T23:54:08.312Z,31.02
2022-12-23T23:56:38.665Z,25.42
2022-12-23T23:59:05.689Z,26.42
